Rhourd El Adra — 7TBS — position and weather

sailwx.info

Track history (hours):
 
Tides and Currents Weather Stations Pressure Air Temp Water Temp Dewpoint Dewpoint Depression Visibility Wind Speed Wind Dir Waves Ship Positions

Rhourd El Adra

Last reported at 2014-Oct-30 15:25 UTC. Time now 2014-Oct-31 07:11 UTC.
Position N 36°03' W 000°05'.

Length 156 m; draft 7.2 m.

Type: Ship (hazmat cat C). MMSI: 605026210.

Date/timePositionNaut miles runAvg speedWind from/ knotsBaromVisibWave heightAir tempDewpointWater temp
2014-Oct-30 15:25N 36°03' W 000°05'  
2014-Oct-26 19:09N 35°56' W 000°07'4 2.1
2014-Oct-26 17:21N 35°52' W 000°06'2 0.6
2014-Oct-26 14:26N 35°54' W 000°06'52 3.7
2014-Oct-26 00:31N 36°29' E 000°42'1515.5
2014-Oct-25 23:33N 36°35' E 000°59'1615.5
2014-Oct-25 22:33N 36°40' E 001°17'1515.3
2014-Oct-25 21:33N 36°44' E 001°35'1615.6
2014-Oct-25 20:33N 36°47' E 001°54'1615.7
2014-Oct-25 19:33N 36°51' E 002°13'1515.4
2014-Oct-25 18:33N 36°56' E 002°32'1515.3
2014-Oct-25 17:33N 37°00' E 002°50'2114.8
2014-Oct-25 16:09N 37°02' E 003°16'914.7
2014-Oct-25 15:33N 37°04' E 003°27'1514.6
2014-Oct-25 14:32N 37°07' E 003°45'23214.4
2014-Oct-24 22:29N 38°19' E 008°23'3314.7
2014-Oct-24 20:14N 38°30' E 009°03'1114.9
2014-Oct-24 19:28N 38°34' E 009°17'  
Track history (hours):
 
Tides and Currents Weather Stations Pressure Air Temp Water Temp Dewpoint Dewpoint Depression Visibility Wind Speed Wind Dir Waves Ship Positions

Rhourd El Adra

Last reported at 2014-Oct-30 15:25 UTC. Time now 2014-Oct-31 07:11 UTC.
Position N 36°03' W 000°05'.

Length 156 m; draft 7.2 m.

Type: Ship (hazmat cat C). MMSI: 605026210.

Date/timePositionNaut miles runAvg speedWind from/ knotsBaromVisibWave heightAir tempDewpointWater temp
2014-Oct-30 15:25N 36°03' W 000°05'  
2014-Oct-26 19:09N 35°56' W 000°07'4 2.1
2014-Oct-26 17:21N 35°52' W 000°06'2 0.6
2014-Oct-26 14:26N 35°54' W 000°06'52 3.7
2014-Oct-26 00:31N 36°29' E 000°42'1515.5
2014-Oct-25 23:33N 36°35' E 000°59'1615.5
2014-Oct-25 22:33N 36°40' E 001°17'1515.3
2014-Oct-25 21:33N 36°44' E 001°35'1615.6
2014-Oct-25 20:33N 36°47' E 001°54'1615.7
2014-Oct-25 19:33N 36°51' E 002°13'1515.4
2014-Oct-25 18:33N 36°56' E 002°32'1515.3
2014-Oct-25 17:33N 37°00' E 002°50'2114.8
2014-Oct-25 16:09N 37°02' E 003°16'914.7
2014-Oct-25 15:33N 37°04' E 003°27'1514.6
2014-Oct-25 14:32N 37°07' E 003°45'23214.4
2014-Oct-24 22:29N 38°19' E 008°23'3314.7
2014-Oct-24 20:14N 38°30' E 009°03'1114.9
2014-Oct-24 19:28N 38°34' E 009°17'  

Dump ship's entire track history